sensor_id;sensor_type;location;lat;lon;timestamp;pressure;altitude;pressure_sealevel;temperature;humidity
13124;BME280;6627;50.920;12.050;2022-11-11T00:01:11;99997.16;;;12.41;65.03
13124;BME280;6627;50.920;12.050;2022-11-11T00:03:40;99980.00;;;12.46;63.69
13124;BME280;6627;50.920;12.050;2022-11-11T00:06:10;99959.81;;;12.18;63.74
13124;BME280;6627;50.920;12.050;2022-11-11T00:08:38;100013.16;;;12.43;65.06
13124;BME280;6627;50.920;12.050;2022-11-11T00:11:09;99985.34;;;12.17;64.63
13124;BME280;6627;50.920;12.050;2022-11-11T00:13:40;100014.63;;;12.25;65.35
13124;BME280;6627;50.920;12.050;2022-11-11T00:16:12;99986.28;;;11.81;66.67
13124;BME280;6627;50.920;12.050;2022-11-11T00:18:42;99996.06;;;11.77;67.34
13124;BME280;6627;50.920;12.050;2022-11-11T00:21:27;100041.72;;;12.40;67.09
13124;BME280;6627;50.920;12.050;2022-11-11T00:26:47;100047.41;;;13.17;64.26
13124;BME280;6627;50.920;12.050;2022-11-11T00:29:14;100004.72;;;12.83;63.35
13124;BME280;6627;50.920;12.050;2022-11-11T00:31:43;99977.09;;;12.32;63.53
13124;BME280;6627;50.920;12.050;2022-11-11T00:34:24;99990.44;;;12.28;63.89
13124;BME280;6627;50.920;12.050;2022-11-11T00:36:51;100012.56;;;12.51;63.76
13124;BME280;6627;50.920;12.050;2022-11-11T00:39:18;100006.63;;;12.49;62.90
13124;BME280;6627;50.920;12.050;2022-11-11T00:41:45;99994.72;;;12.34;62.80
13124;BME280;6627;50.920;12.050;2022-11-11T00:44:12;99967.25;;;11.97;62.88
13124;BME280;6627;50.920;12.050;2022-11-11T00:46:40;99966.00;;;11.69;63.83
13124;BME280;6627;50.920;12.050;2022-11-11T00:49:26;99978.19;;;11.76;64.04
13124;BME280;6627;50.920;12.050;2022-11-11T00:52:11;99983.06;;;11.79;63.70
13124;BME280;6627;50.920;12.050;2022-11-11T00:54:38;99987.97;;;11.82;63.64
13124;BME280;6627;50.920;12.050;2022-11-11T00:57:06;100010.72;;;11.92;63.87
13124;BME280;6627;50.920;12.050;2022-11-11T00:59:34;99983.16;;;11.54;64.16
13124;BME280;6627;50.920;12.050;2022-11-11T01:02:01;99994.72;;;11.80;63.79
13124;BME280;6627;50.920;12.050;2022-11-11T01:04:30;99928.53;;;10.34;67.11
13124;BME280;6627;50.920;12.050;2022-11-11T01:06:58;99965.38;;;10.97;66.36
13124;BME280;6627;50.920;12.050;2022-11-11T01:09:25;99957.81;;;10.78;67.37
13124;BME280;6627;50.920;12.050;2022-11-11T01:11:53;99947.50;;;10.65;67.08
13124;BME280;6627;50.920;12.050;2022-11-11T01:14:20;99987.03;;;11.17;67.21
13124;BME280;6627;50.920;12.050;2022-11-11T01:16:47;100007.34;;;11.40;68.03
13124;BME280;6627;50.920;12.050;2022-11-11T01:19:15;100016.09;;;12.02;65.91
13124;BME280;6627;50.920;12.050;2022-11-11T01:21:43;100008.56;;;11.89;66.37
13124;BME280;6627;50.920;12.050;2022-11-11T01:24:11;99986.22;;;12.07;65.26
13124;BME280;6627;50.920;12.050;2022-11-11T01:26:38;99960.31;;;11.65;65.09
13124;BME280;6627;50.920;12.050;2022-11-11T01:29:05;99982.47;;;11.93;65.31
13124;BME280;6627;50.920;12.050;2022-11-11T01:31:33;99933.88;;;11.26;65.59
13124;BME280;6627;50.920;12.050;2022-11-11T01:34:01;99984.63;;;12.01;65.17
13124;BME280;6627;50.920;12.050;2022-11-11T01:36:29;99966.03;;;11.58;65.59
13124;BME280;6627;50.920;12.050;2022-11-11T01:38:59;99953.97;;;11.20;66.27
13124;BME280;6627;50.920;12.050;2022-11-11T01:41:30;100004.47;;;11.96;65.27
13124;BME280;6627;50.920;12.050;2022-11-11T01:44:14;100001.97;;;12.05;64.71
13124;BME280;6627;50.920;12.050;2022-11-11T01:46:49;99952.34;;;11.09;65.98
13124;BME280;6627;50.920;12.050;2022-11-11T01:49:27;99975.56;;;11.51;65.09
13124;BME280;6627;50.920;12.050;2022-11-11T01:51:59;99897.66;;;10.35;66.28
13124;BME280;6627;50.920;12.050;2022-11-11T01:54:35;99994.03;;;11.49;66.28
13124;BME280;6627;50.920;12.050;2022-11-11T01:57:09;100015.63;;;11.84;65.81
13124;BME280;6627;50.920;12.050;2022-11-11T01:59:40;99998.91;;;11.52;66.77
13124;BME280;6627;50.920;12.050;2022-11-11T02:02:16;100003.63;;;12.01;65.07
13124;BME280;6627;50.920;12.050;2022-11-11T02:04:46;100016.34;;;12.10;65.52
13124;BME280;6627;50.920;12.050;2022-11-11T02:07:34;99975.19;;;11.78;65.69
13124;BME280;6627;50.920;12.050;2022-11-11T02:10:07;99981.97;;;11.85;65.09
13124;BME280;6627;50.920;12.050;2022-11-11T02:12:35;100001.75;;;11.96;65.58
13124;BME280;6627;50.920;12.050;2022-11-11T02:15:20;100016.44;;;12.45;64.63
13124;BME280;6627;50.920;12.050;2022-11-11T02:17:48;99996.72;;;12.24;63.86
13124;BME280;6627;50.920;12.050;2022-11-11T02:20:20;99993.34;;;11.93;64.49
13124;BME280;6627;50.920;12.050;2022-11-11T02:22:56;99999.81;;;12.02;63.96
13124;BME280;6627;50.920;12.050;2022-11-11T02:25:30;100011.50;;;11.97;64.81
13124;BME280;6627;50.920;12.050;2022-11-11T02:28:04;100031.31;;;12.03;65.35
13124;BME280;6627;50.920;12.050;2022-11-11T02:30:32;100013.25;;;11.62;67.40
13124;BME280;6627;50.920;12.050;2022-11-11T02:33:00;100064.81;;;12.37;67.01
13124;BME280;6627;50.920;12.050;2022-11-11T02:35:31;100064.47;;;12.54;66.35
13124;BME280;6627;50.920;12.050;2022-11-11T02:38:01;100048.44;;;12.48;66.19
13124;BME280;6627;50.920;12.050;2022-11-11T02:40:37;100026.72;;;11.93;67.39
13124;BME280;6627;50.920;12.050;2022-11-11T02:43:26;100058.56;;;12.81;65.98
13124;BME280;6627;50.920;12.050;2022-11-11T02:45:54;100040.13;;;12.73;64.89
13124;BME280;6627;50.920;12.050;2022-11-11T02:48:22;99960.59;;;11.69;64.39
13124;BME280;6627;50.920;12.050;2022-11-11T02:50:53;99995.38;;;11.56;65.84
13124;BME280;6627;50.920;12.050;2022-11-11T02:53:21;100032.66;;;12.05;65.39
13124;BME280;6627;50.920;12.050;2022-11-11T02:55:55;100003.69;;;11.85;65.20
13124;BME280;6627;50.920;12.050;2022-11-11T02:58:23;100048.13;;;12.10;66.09
13124;BME280;6627;50.920;12.050;2022-11-11T03:01:06;100049.13;;;12.24;65.65
13124;BME280;6627;50.920;12.050;2022-11-11T03:03:33;100068.09;;;12.40;65.81
13124;BME280;6627;50.920;12.050;2022-11-11T03:06:00;100052.81;;;12.49;65.39
13124;BME280;6627;50.920;12.050;2022-11-11T03:08:27;100083.16;;;12.61;65.96
13124;BME280;6627;50.920;12.050;2022-11-11T03:10:59;100087.50;;;13.01;64.43
13124;BME280;6627;50.920;12.050;2022-11-11T03:13:26;100092.34;;;12.70;65.42
13124;BME280;6627;50.920;12.050;2022-11-11T03:15:53;100084.13;;;12.80;64.04
13124;BME280;6627;50.920;12.050;2022-11-11T03:18:20;100066.50;;;12.28;65.41
13124;BME280;6627;50.920;12.050;2022-11-11T03:20:47;100094.56;;;12.63;65.12
13124;BME280;6627;50.920;12.050;2022-11-11T03:23:32;100096.13;;;12.74;64.01
13124;BME280;6627;50.920;12.050;2022-11-11T03:26:00;100018.88;;;11.92;64.16
13124;BME280;6627;50.920;12.050;2022-11-11T03:28:28;100084.94;;;12.36;64.61
13124;BME280;6627;50.920;12.050;2022-11-11T03:30:55;100061.97;;;12.63;63.16
13124;BME280;6627;50.920;12.050;2022-11-11T03:33:23;100065.25;;;12.55;62.88
13124;BME280;6627;50.920;12.050;2022-11-11T03:35:51;100062.94;;;12.33;63.38
13124;BME280;6627;50.920;12.050;2022-11-11T03:38:18;100035.09;;;12.07;63.02
13124;BME280;6627;50.920;12.050;2022-11-11T03:40:50;100050.34;;;11.98;64.10
13124;BME280;6627;50.920;12.050;2022-11-11T03:43:22;100031.38;;;11.88;63.92
13124;BME280;6627;50.920;12.050;2022-11-11T03:45:50;100062.31;;;11.76;65.05
13124;BME280;6627;50.920;12.050;2022-11-11T03:48:18;100003.19;;;11.63;63.65
13124;BME280;6627;50.920;12.050;2022-11-11T03:50:46;100017.63;;;11.48;64.13
13124;BME280;6627;50.920;12.050;2022-11-11T03:53:14;100042.00;;;11.58;64.75
13124;BME280;6627;50.920;12.050;2022-11-11T03:55:42;100032.47;;;11.71;64.15
13124;BME280;6627;50.920;12.050;2022-11-11T03:58:09;100016.22;;;11.66;63.86
13124;BME280;6627;50.920;12.050;2022-11-11T04:00:39;100032.56;;;11.35;65.67
13124;BME280;6627;50.920;12.050;2022-11-11T04:03:09;99996.53;;;11.15;65.09
13124;BME280;6627;50.920;12.050;2022-11-11T04:05:54;100027.13;;;11.46;65.17
13124;BME280;6627;50.920;12.050;2022-11-11T04:08:42;100009.72;;;11.62;64.31
13124;BME280;6627;50.920;12.050;2022-11-11T04:11:31;100052.50;;;12.01;64.05
13124;BME280;6627;50.920;12.050;2022-11-11T04:14:05;100032.97;;;11.94;62.99
13124;BME280;6627;50.920;12.050;2022-11-11T04:16:53;100063.38;;;12.01;63.59
13124;BME280;6627;50.920;12.050;2022-11-11T04:19:21;100057.97;;;11.85;64.07
13124;BME280;6627;50.920;12.050;2022-11-11T04:22:05;100079.50;;;12.36;62.91
13124;BME280;6627;50.920;12.050;2022-11-11T04:24:33;100088.69;;;12.46;62.47
13124;BME280;6627;50.920;12.050;2022-11-11T04:27:19;99962.09;;;11.15;62.83
13124;BME280;6627;50.920;12.050;2022-11-11T04:29:46;100014.72;;;11.04;64.32
13124;BME280;6627;50.920;12.050;2022-11-11T04:32:17;100007.94;;;10.76;65.43
13124;BME280;6627;50.920;12.050;2022-11-11T04:35:07;100043.19;;;10.91;66.66
13124;BME280;6627;50.920;12.050;2022-11-11T04:37:43;100058.06;;;11.24;66.06
13124;BME280;6627;50.920;12.050;2022-11-11T04:40:18;100091.63;;;12.00;65.00
13124;BME280;6627;50.920;12.050;2022-11-11T04:43:03;100086.03;;;12.35;63.41
13124;BME280;6627;50.920;12.050;2022-11-11T04:45:30;100089.16;;;12.58;62.64
13124;BME280;6627;50.920;12.050;2022-11-11T04:48:00;100068.13;;;12.29;63.03
13124;BME280;6627;50.920;12.050;2022-11-11T04:50:30;100064.16;;;12.06;63.20
13124;BME280;6627;50.920;12.050;2022-11-11T04:52:58;100108.22;;;12.53;63.01
13124;BME280;6627;50.920;12.050;2022-11-11T04:55:26;100052.53;;;11.91;63.27
13124;BME280;6627;50.920;12.050;2022-11-11T04:58:12;100063.38;;;11.96;63.55
13124;BME280;6627;50.920;12.050;2022-11-11T05:00:39;100049.25;;;11.94;63.26
13124;BME280;6627;50.920;12.050;2022-11-11T05:03:11;100121.84;;;12.43;64.29
13124;BME280;6627;50.920;12.050;2022-11-11T05:05:47;100114.25;;;12.45;64.61
13124;BME280;6627;50.920;12.050;2022-11-11T05:08:36;100127.00;;;12.49;65.21
13124;BME280;6627;50.920;12.050;2022-11-11T05:11:23;100114.69;;;12.62;64.47
13124;BME280;6627;50.920;12.050;2022-11-11T05:13:52;100073.09;;;12.07;65.50
13124;BME280;6627;50.920;12.050;2022-11-11T05:16:40;100090.31;;;12.47;65.41
13124;BME280;6627;50.920;12.050;2022-11-11T05:19:28;100083.69;;;12.14;66.52
13124;BME280;6627;50.920;12.050;2022-11-11T05:22:18;100058.97;;;12.10;65.63
13124;BME280;6627;50.920;12.050;2022-11-11T05:24:48;100035.97;;;11.82;66.52
13124;BME280;6627;50.920;12.050;2022-11-11T05:27:48;100043.31;;;11.76;67.10
13124;BME280;6627;50.920;12.050;2022-11-11T05:30:16;100054.69;;;11.94;67.10
13124;BME280;6627;50.920;12.050;2022-11-11T05:32:44;100062.84;;;11.89;67.74
13124;BME280;6627;50.920;12.050;2022-11-11T05:35:14;100061.16;;;12.08;67.26
13124;BME280;6627;50.920;12.050;2022-11-11T05:37:42;100080.59;;;12.30;67.05
13124;BME280;6627;50.920;12.050;2022-11-11T05:40:11;100034.16;;;11.57;67.84
13124;BME280;6627;50.920;12.050;2022-11-11T05:42:41;100043.34;;;11.66;67.85
13124;BME280;6627;50.920;12.050;2022-11-11T05:45:09;100098.41;;;12.57;66.70
13124;BME280;6627;50.920;12.050;2022-11-11T05:47:36;100113.69;;;12.92;65.37
13124;BME280;6627;50.920;12.050;2022-11-11T05:50:05;100057.34;;;12.14;65.37
13124;BME280;6627;50.920;12.050;2022-11-11T05:52:35;100064.94;;;12.12;65.29
13124;BME280;6627;50.920;12.050;2022-11-11T05:55:03;100059.09;;;11.59;66.74
13124;BME280;6627;50.920;12.050;2022-11-11T05:57:30;100094.53;;;12.08;66.35
13124;BME280;6627;50.920;12.050;2022-11-11T05:59:57;100069.16;;;11.69;67.11
13124;BME280;6627;50.920;12.050;2022-11-11T06:02:25;100124.63;;;12.27;67.11
13124;BME280;6627;50.920;12.050;2022-11-11T06:04:52;100127.19;;;12.63;65.74
13124;BME280;6627;50.920;12.050;2022-11-11T06:07:20;100122.28;;;12.65;65.31
13124;BME280;6627;50.920;12.050;2022-11-11T06:09:49;100096.63;;;12.37;65.18
13124;BME280;6627;50.920;12.050;2022-11-11T06:12:16;100105.50;;;12.53;64.82
13124;BME280;6627;50.920;12.050;2022-11-11T06:14:43;100108.06;;;12.29;65.61
13124;BME280;6627;50.920;12.050;2022-11-11T06:17:10;100126.38;;;12.62;64.91
13124;BME280;6627;50.920;12.050;2022-11-11T06:19:38;100103.94;;;12.42;64.60
13124;BME280;6627;50.920;12.050;2022-11-11T06:22:05;100113.63;;;12.58;64.51
13124;BME280;6627;50.920;12.050;2022-11-11T06:24:32;100104.13;;;12.55;64.05
13124;BME280;6627;50.920;12.050;2022-11-11T06:27:01;100110.53;;;12.80;63.57
13124;BME280;6627;50.920;12.050;2022-11-11T06:29:27;100093.56;;;12.49;64.12
13124;BME280;6627;50.920;12.050;2022-11-11T06:31:54;100040.06;;;11.74;64.83
13124;BME280;6627;50.920;12.050;2022-11-11T06:34:22;100095.41;;;11.99;66.14
13124;BME280;6627;50.920;12.050;2022-11-11T06:36:49;100088.38;;;11.77;66.37
13124;BME280;6627;50.920;12.050;2022-11-11T06:39:16;100083.53;;;11.59;67.66
13124;BME280;6627;50.920;12.050;2022-11-11T06:41:44;100122.75;;;12.23;66.41
13124;BME280;6627;50.920;12.050;2022-11-11T06:44:12;100132.69;;;12.53;66.23
13124;BME280;6627;50.920;12.050;2022-11-11T06:46:40;100115.00;;;12.55;65.87
13124;BME280;6627;50.920;12.050;2022-11-11T06:49:07;100112.38;;;12.30;66.41
13124;BME280;6627;50.920;12.050;2022-11-11T06:51:35;100104.00;;;12.21;66.21
13124;BME280;6627;50.920;12.050;2022-11-11T06:54:02;100110.44;;;12.46;66.01
13124;BME280;6627;50.920;12.050;2022-11-11T06:56:30;100106.63;;;12.47;66.16
13124;BME280;6627;50.920;12.050;2022-11-11T06:58:57;100116.16;;;12.39;66.64
13124;BME280;6627;50.920;12.050;2022-11-11T07:01:26;100129.41;;;12.51;66.73
13124;BME280;6627;50.920;12.050;2022-11-11T07:03:53;100136.13;;;12.69;66.38
13124;BME280;6627;50.920;12.050;2022-11-11T07:06:21;100156.22;;;13.22;65.12
13124;BME280;6627;50.920;12.050;2022-11-11T07:08:48;100127.91;;;12.84;65.14
13124;BME280;6627;50.920;12.050;2022-11-11T07:11:15;100131.75;;;12.18;67.10
13124;BME280;6627;50.920;12.050;2022-11-11T07:13:43;100181.41;;;12.94;66.88
13124;BME280;6627;50.920;12.050;2022-11-11T07:16:10;100204.41;;;13.56;65.40
13124;BME280;6627;50.920;12.050;2022-11-11T07:18:39;100179.69;;;13.47;64.42
13124;BME280;6627;50.920;12.050;2022-11-11T07:21:07;100170.16;;;13.10;64.79
13124;BME280;6627;50.920;12.050;2022-11-11T07:23:34;100176.41;;;13.11;64.91
13124;BME280;6627;50.920;12.050;2022-11-11T07:26:01;100191.53;;;13.27;64.74
13124;BME280;6627;50.920;12.050;2022-11-11T07:28:29;100194.81;;;13.29;64.54
13124;BME280;6627;50.920;12.050;2022-11-11T07:30:56;100180.69;;;13.17;64.40
13124;BME280;6627;50.920;12.050;2022-11-11T07:33:24;100183.41;;;13.22;64.35
13124;BME280;6627;50.920;12.050;2022-11-11T07:35:52;100218.63;;;13.48;64.62
13124;BME280;6627;50.920;12.050;2022-11-11T07:38:20;100213.25;;;13.37;64.87
13124;BME280;6627;50.920;12.050;2022-11-11T07:40:47;100197.56;;;13.14;64.77
13124;BME280;6627;50.920;12.050;2022-11-11T07:43:14;100167.19;;;12.52;65.90
13124;BME280;6627;50.920;12.050;2022-11-11T07:45:42;100226.22;;;13.51;64.77
13124;BME280;6627;50.920;12.050;2022-11-11T07:48:10;100216.56;;;13.29;65.47
13124;BME280;6627;50.920;12.050;2022-11-11T07:50:37;100211.19;;;13.14;66.15
13124;BME280;6627;50.920;12.050;2022-11-11T07:53:06;100239.41;;;13.68;64.75
13124;BME280;6627;50.920;12.050;2022-11-11T07:55:34;100254.72;;;13.63;65.24
13124;BME280;6627;50.920;12.050;2022-11-11T07:58:01;100272.78;;;13.83;65.21
13124;BME280;6627;50.920;12.050;2022-11-11T08:00:28;100252.72;;;13.74;64.39
13124;BME280;6627;50.920;12.050;2022-11-11T08:02:56;100272.84;;;14.12;63.60
13124;BME280;6627;50.920;12.050;2022-11-11T08:05:23;100262.81;;;14.03;63.39
13124;BME280;6627;50.920;12.050;2022-11-11T08:07:51;100271.81;;;13.69;64.46
13124;BME280;6627;50.920;12.050;2022-11-11T08:10:19;100270.56;;;13.91;63.82
13124;BME280;6627;50.920;12.050;2022-11-11T08:12:52;100264.06;;;13.86;63.37
13124;BME280;6627;50.920;12.050;2022-11-11T08:15:37;100221.75;;;13.26;64.35
13124;BME280;6627;50.920;12.050;2022-11-11T08:18:04;100276.72;;;13.67;64.30
13124;BME280;6627;50.920;12.050;2022-11-11T08:20:32;100257.50;;;13.53;64.09
13124;BME280;6627;50.920;12.050;2022-11-11T08:22:59;100247.63;;;13.18;64.89
13124;BME280;6627;50.920;12.050;2022-11-11T08:25:31;100274.53;;;13.69;64.01
13124;BME280;6627;50.920;12.050;2022-11-11T08:28:00;100295.91;;;14.20;63.24
13124;BME280;6627;50.920;12.050;2022-11-11T08:30:28;100291.66;;;14.09;63.35
13124;BME280;6627;50.920;12.050;2022-11-11T08:32:57;100342.22;;;14.83;62.69
13124;BME280;6627;50.920;12.050;2022-11-11T08:35:25;100356.22;;;15.01;62.13
13124;BME280;6627;50.920;12.050;2022-11-11T08:37:53;100371.19;;;15.03;61.85
13124;BME280;6627;50.920;12.050;2022-11-11T08:40:21;100399.00;;;15.29;61.92
13124;BME280;6627;50.920;12.050;2022-11-11T08:42:54;100395.78;;;15.46;61.09
13124;BME280;6627;50.920;12.050;2022-11-11T08:45:22;100376.69;;;15.22;61.40
13124;BME280;6627;50.920;12.050;2022-11-11T08:47:49;100387.38;;;15.43;60.87
13124;BME280;6627;50.920;12.050;2022-11-11T08:50:17;100336.16;;;14.86;61.18
13124;BME280;6627;50.920;12.050;2022-11-11T08:52:47;100357.31;;;15.00;61.54
13124;BME280;6627;50.920;12.050;2022-11-11T08:55:15;100398.16;;;15.53;60.90
13124;BME280;6627;50.920;12.050;2022-11-11T08:57:42;100355.56;;;15.09;61.00
13124;BME280;6627;50.920;12.050;2022-11-11T09:00:14;100413.75;;;15.76;60.40
13124;BME280;6627;50.920;12.050;2022-11-11T09:02:41;100418.91;;;15.97;59.59
13124;BME280;6627;50.920;12.050;2022-11-11T09:05:09;100398.97;;;15.77;59.72
13124;BME280;6627;50.920;12.050;2022-11-11T09:07:36;100455.22;;;16.54;58.66
13124;BME280;6627;50.920;12.050;2022-11-11T09:10:05;100375.25;;;15.92;58.75
13124;BME280;6627;50.920;12.050;2022-11-11T09:12:32;100356.41;;;15.71;59.04
13124;BME280;6627;50.920;12.050;2022-11-11T09:15:00;100391.53;;;15.59;60.72
13124;BME280;6627;50.920;12.050;2022-11-11T09:17:28;100371.03;;;15.80;59.51
13124;BME280;6627;50.920;12.050;2022-11-11T09:19:56;100405.16;;;16.21;59.10
13124;BME280;6627;50.920;12.050;2022-11-11T09:22:23;100405.91;;;16.26;59.27
13124;BME280;6627;50.920;12.050;2022-11-11T09:24:51;100430.41;;;16.31;59.57
13124;BME280;6627;50.920;12.050;2022-11-11T09:27:18;100462.06;;;16.70;59.29
13124;BME280;6627;50.920;12.050;2022-11-11T09:29:45;100451.22;;;16.65;58.98
13124;BME280;6627;50.920;12.050;2022-11-11T09:32:13;100450.00;;;16.71;58.65
13124;BME280;6627;50.920;12.050;2022-11-11T09:34:41;100465.47;;;16.81;58.57
13124;BME280;6627;50.920;12.050;2022-11-11T09:37:09;100447.75;;;16.78;58.91
13124;BME280;6627;50.920;12.050;2022-11-11T09:39:36;100466.97;;;17.20;57.59
13124;BME280;6627;50.920;12.050;2022-11-11T09:42:10;100443.47;;;17.19;56.60
13124;BME280;6627;50.920;12.050;2022-11-11T09:45:05;100459.91;;;17.60;56.02
13124;BME280;6627;50.920;12.050;2022-11-11T09:47:48;100476.56;;;17.77;55.73
13124;BME280;6627;50.920;12.050;2022-11-11T09:50:22;100383.69;;;17.34;55.24
13124;BME280;6627;50.920;12.050;2022-11-11T09:52:59;100388.06;;;17.22;55.75
13124;BME280;6627;50.920;12.050;2022-11-11T09:55:34;100379.13;;;17.44;55.37
13124;BME280;6627;50.920;12.050;2022-11-11T09:58:10;100363.50;;;17.30;55.28
13124;BME280;6627;50.920;12.050;2022-11-11T10:00:44;100371.38;;;17.73;54.05
13124;BME280;6627;50.920;12.050;2022-11-11T10:03:17;100388.84;;;17.77;54.81
13124;BME280;6627;50.920;12.050;2022-11-11T10:05:55;100421.22;;;18.25;54.19
13124;BME280;6627;50.920;12.050;2022-11-11T10:08:28;100419.34;;;18.34;53.81
13124;BME280;6627;50.920;12.050;2022-11-11T10:10:59;100408.81;;;18.73;52.29
13124;BME280;6627;50.920;12.050;2022-11-11T10:13:30;100364.94;;;18.59;52.08
13124;BME280;6627;50.920;12.050;2022-11-11T10:16:06;100348.50;;;18.67;51.64
13124;BME280;6627;50.920;12.050;2022-11-11T10:18:55;100341.50;;;18.53;52.15
13124;BME280;6627;50.920;12.050;2022-11-11T10:21:36;100313.41;;;18.47;51.84
13124;BME280;6627;50.920;12.050;2022-11-11T10:24:14;100390.31;;;19.27;51.13
13124;BME280;6627;50.920;12.050;2022-11-11T10:26:44;100415.84;;;19.76;50.47
13124;BME280;6627;50.920;12.050;2022-11-11T10:29:17;100264.53;;;18.58;51.72
13124;BME280;6627;50.920;12.050;2022-11-11T10:31:54;100320.09;;;19.03;51.44
13124;BME280;6627;50.920;12.050;2022-11-11T10:34:31;100391.94;;;20.11;49.91
13124;BME280;6627;50.920;12.050;2022-11-11T10:37:02;100319.91;;;19.57;50.21
13124;BME280;6627;50.920;12.050;2022-11-11T10:39:41;100317.84;;;19.71;49.49
13124;BME280;6627;50.920;12.050;2022-11-11T10:42:15;100289.16;;;19.46;49.63
13124;BME280;6627;50.920;12.050;2022-11-11T10:44:44;100268.00;;;19.47;48.66
13124;BME280;6627;50.920;12.050;2022-11-11T10:47:14;100286.13;;;19.82;48.17
13124;BME280;6627;50.920;12.050;2022-11-11T10:49:50;100235.66;;;19.78;47.48
13124;BME280;6627;50.920;12.050;2022-11-11T10:52:24;100288.66;;;20.22;47.16
13124;BME280;6627;50.920;12.050;2022-11-11T10:55:02;100316.25;;;20.69;46.26
13124;BME280;6627;50.920;12.050;2022-11-11T10:57:34;100148.69;;;19.65;46.39
13124;BME280;6627;50.920;12.050;2022-11-11T11:00:05;100231.41;;;20.07;46.59
13124;BME280;6627;50.920;12.050;2022-11-11T11:02:39;100282.28;;;20.56;46.38
13124;BME280;6627;50.920;12.050;2022-11-11T11:05:12;100249.44;;;20.42;46.09
13124;BME280;6627;50.920;12.050;2022-11-11T11:07:45;100264.03;;;20.81;45.23
13124;BME280;6627;50.920;12.050;2022-11-11T11:10:18;100079.72;;;19.87;45.35
13124;BME280;6627;50.920;12.050;2022-11-11T11:12:54;100214.78;;;20.41;45.29
13124;BME280;6627;50.920;12.050;2022-11-11T11:15:27;100090.72;;;19.87;45.18
13124;BME280;6627;50.920;12.050;2022-11-11T11:18:02;100107.50;;;20.33;44.44
13124;BME280;6627;50.920;12.050;2022-11-11T11:20:30;100219.69;;;20.74;44.29
13124;BME280;6627;50.920;12.050;2022-11-11T11:22:59;100136.31;;;20.65;43.28
13124;BME280;6627;50.920;12.050;2022-11-11T11:25:29;100148.69;;;20.80;43.29
13124;BME280;6627;50.920;12.050;2022-11-11T11:28:08;100093.81;;;20.96;42.43
13124;BME280;6627;50.920;12.050;2022-11-11T11:30:36;100160.44;;;20.89;43.50
13124;BME280;6627;50.920;12.050;2022-11-11T11:33:05;100182.50;;;21.10;43.04
13124;BME280;6627;50.920;12.050;2022-11-11T11:35:36;100074.81;;;20.61;42.81
13124;BME280;6627;50.920;12.050;2022-11-11T11:38:08;100048.56;;;20.34;43.41
13124;BME280;6627;50.920;12.050;2022-11-11T11:40:49;100210.91;;;21.64;42.12
13124;BME280;6627;50.920;12.050;2022-11-11T11:43:32;100088.88;;;21.22;40.48
13124;BME280;6627;50.920;12.050;2022-11-11T11:46:04;100156.59;;;21.65;40.66
13124;BME280;6627;50.920;12.050;2022-11-11T11:49:09;100180.41;;;22.15;39.93
13124;BME280;6627;50.920;12.050;2022-11-11T11:51:51;100128.84;;;22.07;39.81
13124;BME280;6627;50.920;12.050;2022-11-11T11:54:49;100127.06;;;22.23;39.40
13124;BME280;6627;50.920;12.050;2022-11-11T11:57:38;100057.91;;;22.07;39.02
13124;BME280;6627;50.920;12.050;2022-11-11T12:00:17;99993.56;;;21.79;39.29
13124;BME280;6627;50.920;12.050;2022-11-11T12:03:17;100029.75;;;21.89;39.14
13124;BME280;6627;50.920;12.050;2022-11-11T12:06:01;99999.63;;;21.84;39.28
13124;BME280;6627;50.920;12.050;2022-11-11T12:08:49;99993.19;;;21.92;38.55
13124;BME280;6627;50.920;12.050;2022-11-11T12:11:32;99997.69;;;21.97;38.62
13124;BME280;6627;50.920;12.050;2022-11-11T12:14:40;100007.44;;;22.31;37.58
13124;BME280;6627;50.920;12.050;2022-11-11T12:17:29;99903.03;;;21.56;38.41
13124;BME280;6627;50.920;12.050;2022-11-11T12:20:12;99941.69;;;21.97;38.06
13124;BME280;6627;50.920;12.050;2022-11-11T12:23:04;99933.56;;;21.76;38.65
13124;BME280;6627;50.920;12.050;2022-11-11T12:25:51;100010.19;;;22.31;38.13
13124;BME280;6627;50.920;12.050;2022-11-11T12:28:46;99986.84;;;22.29;38.01
13124;BME280;6627;50.920;12.050;2022-11-11T12:31:32;100016.69;;;22.51;37.64
13124;BME280;6627;50.920;12.050;2022-11-11T12:34:32;100002.59;;;22.40;38.40
13124;BME280;6627;50.920;12.050;2022-11-11T12:37:14;99950.66;;;21.81;39.66
13124;BME280;6627;50.920;12.050;2022-11-11T12:40:03;99922.59;;;22.04;38.40
13124;BME280;6627;50.920;12.050;2022-11-11T12:42:52;99940.75;;;22.17;38.38
13124;BME280;6627;50.920;12.050;2022-11-11T12:45:34;100014.28;;;22.50;38.32
13124;BME280;6627;50.920;12.050;2022-11-11T12:48:09;100066.25;;;22.72;38.71
13124;BME280;6627;50.920;12.050;2022-11-11T12:50:54;99968.06;;;22.34;38.42
13124;BME280;6627;50.920;12.050;2022-11-11T12:53:32;99926.38;;;22.11;38.73
13124;BME280;6627;50.920;12.050;2022-11-11T12:56:10;99951.69;;;22.13;38.72
13124;BME280;6627;50.920;12.050;2022-11-11T12:58:53;99949.59;;;22.23;38.38
13124;BME280;6627;50.920;12.050;2022-11-11T13:01:37;99970.59;;;22.39;38.39
13124;BME280;6627;50.920;12.050;2022-11-11T13:04:34;100031.56;;;22.75;38.76
13124;BME280;6627;50.920;12.050;2022-11-11T13:07:45;99932.81;;;22.15;38.60
13124;BME280;6627;50.920;12.050;2022-11-11T13:10:25;99896.41;;;21.85;38.46
13124;BME280;6627;50.920;12.050;2022-11-11T13:13:16;99916.41;;;21.95;38.41
13124;BME280;6627;50.920;12.050;2022-11-11T13:15:48;99988.97;;;22.48;38.21
13124;BME280;6627;50.920;12.050;2022-11-11T13:18:27;100027.94;;;22.99;37.50
13124;BME280;6627;50.920;12.050;2022-11-11T13:20:58;99993.09;;;22.54;38.47
13124;BME280;6627;50.920;12.050;2022-11-11T13:23:30;99919.97;;;22.35;37.72
13124;BME280;6627;50.920;12.050;2022-11-11T13:26:11;99961.16;;;22.69;37.58